sensor_id;sensor_type;location;lat;lon;timestamp;P1;durP1;ratioP1;P2;durP2;ratioP2
38779;SDS011;29273;49.962;9.768;2023-12-07T00:00:29;4.43;;;3.90;;
38779;SDS011;29273;49.962;9.768;2023-12-07T00:02:54;6.25;;;4.30;;
38779;SDS011;29273;49.962;9.768;2023-12-07T00:05:20;6.45;;;4.45;;
38779;SDS011;29273;49.962;9.768;2023-12-07T00:07:45;5.28;;;3.75;;
38779;SDS011;29273;49.962;9.768;2023-12-07T00:10:11;5.13;;;4.18;;
38779;SDS011;29273;49.962;9.768;2023-12-07T00:12:36;4.55;;;3.72;;
38779;SDS011;29273;49.962;9.768;2023-12-07T00:15:02;4.80;;;3.80;;
38779;SDS011;29273;49.962;9.768;2023-12-07T00:17:28;4.15;;;3.72;;
38779;SDS011;29273;49.962;9.768;2023-12-07T00:19:53;4.70;;;3.97;;
38779;SDS011;29273;49.962;9.768;2023-12-07T00:22:19;5.68;;;4.65;;
38779;SDS011;29273;49.962;9.768;2023-12-07T00:24:45;5.97;;;4.30;;
38779;SDS011;29273;49.962;9.768;2023-12-07T00:27:11;5.22;;;4.13;;
38779;SDS011;29273;49.962;9.768;2023-12-07T00:29:39;5.90;;;4.63;;
38779;SDS011;29273;49.962;9.768;2023-12-07T00:32:04;5.85;;;4.30;;
38779;SDS011;29273;49.962;9.768;2023-12-07T00:34:30;4.93;;;4.20;;
38779;SDS011;29273;49.962;9.768;2023-12-07T00:36:55;6.53;;;4.70;;
38779;SDS011;29273;49.962;9.768;2023-12-07T00:39:21;5.10;;;4.45;;
38779;SDS011;29273;49.962;9.768;2023-12-07T00:41:46;5.78;;;4.30;;
38779;SDS011;29273;49.962;9.768;2023-12-07T00:44:13;5.45;;;4.25;;
38779;SDS011;29273;49.962;9.768;2023-12-07T00:46:39;4.65;;;4.13;;
38779;SDS011;29273;49.962;9.768;2023-12-07T00:49:05;5.60;;;4.25;;
38779;SDS011;29273;49.962;9.768;2023-12-07T00:51:31;5.38;;;3.72;;
38779;SDS011;29273;49.962;9.768;2023-12-07T00:53:57;6.65;;;4.25;;
38779;SDS011;29273;49.962;9.768;2023-12-07T00:56:23;5.65;;;3.70;;
38779;SDS011;29273;49.962;9.768;2023-12-07T00:58:49;5.85;;;4.03;;
38779;SDS011;29273;49.962;9.768;2023-12-07T01:01:15;5.63;;;4.03;;
38779;SDS011;29273;49.962;9.768;2023-12-07T01:03:41;4.63;;;3.50;;
38779;SDS011;29273;49.962;9.768;2023-12-07T01:06:07;4.82;;;3.67;;
38779;SDS011;29273;49.962;9.768;2023-12-07T01:08:33;7.13;;;4.07;;
38779;SDS011;29273;49.962;9.768;2023-12-07T01:10:58;4.50;;;3.50;;
38779;SDS011;29273;49.962;9.768;2023-12-07T01:13:24;4.50;;;3.80;;
38779;SDS011;29273;49.962;9.768;2023-12-07T01:15:50;4.68;;;3.70;;
38779;SDS011;29273;49.962;9.768;2023-12-07T01:18:15;4.28;;;3.60;;
38779;SDS011;29273;49.962;9.768;2023-12-07T01:20:42;3.80;;;2.97;;
38779;SDS011;29273;49.962;9.768;2023-12-07T01:23:07;5.07;;;3.50;;
38779;SDS011;29273;49.962;9.768;2023-12-07T01:25:35;4.45;;;3.67;;
38779;SDS011;29273;49.962;9.768;2023-12-07T01:28:01;4.53;;;3.28;;
38779;SDS011;29273;49.962;9.768;2023-12-07T01:30:27;5.30;;;3.63;;
38779;SDS011;29273;49.962;9.768;2023-12-07T01:32:52;4.88;;;3.70;;
38779;SDS011;29273;49.962;9.768;2023-12-07T01:35:18;4.85;;;3.92;;
38779;SDS011;29273;49.962;9.768;2023-12-07T01:37:43;5.18;;;3.67;;
38779;SDS011;29273;49.962;9.768;2023-12-07T01:40:09;6.05;;;4.07;;
38779;SDS011;29273;49.962;9.768;2023-12-07T01:42:36;4.47;;;3.42;;
38779;SDS011;29273;49.962;9.768;2023-12-07T01:45:03;5.03;;;3.63;;
38779;SDS011;29273;49.962;9.768;2023-12-07T01:47:30;4.55;;;3.80;;
38779;SDS011;29273;49.962;9.768;2023-12-07T01:49:56;4.20;;;3.78;;
38779;SDS011;29273;49.962;9.768;2023-12-07T01:52:22;4.72;;;3.88;;
38779;SDS011;29273;49.962;9.768;2023-12-07T01:54:52;4.80;;;3.90;;
38779;SDS011;29273;49.962;9.768;2023-12-07T01:57:18;4.50;;;4.05;;
38779;SDS011;29273;49.962;9.768;2023-12-07T01:59:44;5.93;;;4.20;;
38779;SDS011;29273;49.962;9.768;2023-12-07T02:02:10;4.45;;;3.80;;
38779;SDS011;29273;49.962;9.768;2023-12-07T02:04:36;4.32;;;3.60;;
38779;SDS011;29273;49.962;9.768;2023-12-07T02:07:02;4.50;;;3.72;;
38779;SDS011;29273;49.962;9.768;2023-12-07T02:09:29;4.90;;;3.70;;
38779;SDS011;29273;49.962;9.768;2023-12-07T02:11:54;4.38;;;3.55;;
38779;SDS011;29273;49.962;9.768;2023-12-07T02:14:20;6.30;;;3.90;;
38779;SDS011;29273;49.962;9.768;2023-12-07T02:16:48;4.88;;;3.65;;
38779;SDS011;29273;49.962;9.768;2023-12-07T02:22:18;4.47;;;3.80;;
38779;SDS011;29273;49.962;9.768;2023-12-07T02:27:33;4.72;;;3.70;;
38779;SDS011;29273;49.962;9.768;2023-12-07T02:30:03;5.32;;;3.90;;
38779;SDS011;29273;49.962;9.768;2023-12-07T02:32:29;5.88;;;4.00;;
38779;SDS011;29273;49.962;9.768;2023-12-07T02:34:55;5.70;;;4.63;;
38779;SDS011;29273;49.962;9.768;2023-12-07T02:37:21;5.53;;;4.47;;
38779;SDS011;29273;49.962;9.768;2023-12-07T02:39:47;5.60;;;4.25;;
38779;SDS011;29273;49.962;9.768;2023-12-07T02:42:16;5.82;;;4.28;;
38779;SDS011;29273;49.962;9.768;2023-12-07T02:44:41;5.82;;;3.90;;
38779;SDS011;29273;49.962;9.768;2023-12-07T02:47:07;7.05;;;4.35;;
38779;SDS011;29273;49.962;9.768;2023-12-07T02:49:33;6.90;;;4.88;;
38779;SDS011;29273;49.962;9.768;2023-12-07T02:51:59;7.32;;;4.28;;
38779;SDS011;29273;49.962;9.768;2023-12-07T02:54:24;5.78;;;4.43;;
38779;SDS011;29273;49.962;9.768;2023-12-07T02:56:50;6.10;;;4.93;;
38779;SDS011;29273;49.962;9.768;2023-12-07T02:59:15;6.57;;;4.63;;
38779;SDS011;29273;49.962;9.768;2023-12-07T03:01:41;5.93;;;4.22;;
38779;SDS011;29273;49.962;9.768;2023-12-07T03:04:06;5.60;;;4.63;;
38779;SDS011;29273;49.962;9.768;2023-12-07T03:06:32;7.82;;;4.80;;
38779;SDS011;29273;49.962;9.768;2023-12-07T03:08:57;5.97;;;4.38;;
38779;SDS011;29273;49.962;9.768;2023-12-07T03:11:23;5.53;;;3.95;;
38779;SDS011;29273;49.962;9.768;2023-12-07T03:13:49;5.40;;;4.03;;
38779;SDS011;29273;49.962;9.768;2023-12-07T03:16:15;5.32;;;4.20;;
38779;SDS011;29273;49.962;9.768;2023-12-07T03:18:40;8.18;;;4.85;;
38779;SDS011;29273;49.962;9.768;2023-12-07T03:21:06;6.32;;;4.05;;
38779;SDS011;29273;49.962;9.768;2023-12-07T03:23:31;6.18;;;4.15;;
38779;SDS011;29273;49.962;9.768;2023-12-07T03:25:57;7.10;;;4.90;;
38779;SDS011;29273;49.962;9.768;2023-12-07T03:28:22;5.63;;;4.60;;
38779;SDS011;29273;49.962;9.768;2023-12-07T03:30:48;8.52;;;5.20;;
38779;SDS011;29273;49.962;9.768;2023-12-07T03:33:13;9.82;;;5.93;;
38779;SDS011;29273;49.962;9.768;2023-12-07T03:35:39;10.45;;;5.82;;
38779;SDS011;29273;49.962;9.768;2023-12-07T03:38:04;11.52;;;6.32;;
38779;SDS011;29273;49.962;9.768;2023-12-07T03:40:30;11.20;;;6.40;;
38779;SDS011;29273;49.962;9.768;2023-12-07T03:42:55;11.55;;;6.18;;
38779;SDS011;29273;49.962;9.768;2023-12-07T03:45:21;10.88;;;6.43;;
38779;SDS011;29273;49.962;9.768;2023-12-07T03:47:46;8.52;;;5.13;;
38779;SDS011;29273;49.962;9.768;2023-12-07T03:50:12;7.78;;;5.00;;
38779;SDS011;29273;49.962;9.768;2023-12-07T03:52:37;7.38;;;5.28;;
38779;SDS011;29273;49.962;9.768;2023-12-07T03:55:03;9.75;;;5.10;;
38779;SDS011;29273;49.962;9.768;2023-12-07T03:57:28;8.23;;;5.43;;
38779;SDS011;29273;49.962;9.768;2023-12-07T03:59:54;7.97;;;5.30;;
38779;SDS011;29273;49.962;9.768;2023-12-07T04:02:19;6.93;;;4.95;;
38779;SDS011;29273;49.962;9.768;2023-12-07T04:04:45;7.72;;;5.28;;
38779;SDS011;29273;49.962;9.768;2023-12-07T04:07:10;5.80;;;4.47;;
38779;SDS011;29273;49.962;9.768;2023-12-07T04:09:36;6.65;;;4.75;;
38779;SDS011;29273;49.962;9.768;2023-12-07T04:12:01;6.47;;;4.22;;
38779;SDS011;29273;49.962;9.768;2023-12-07T04:14:27;7.50;;;4.80;;
38779;SDS011;29273;49.962;9.768;2023-12-07T04:16:53;6.57;;;4.93;;
38779;SDS011;29273;49.962;9.768;2023-12-07T04:19:18;5.68;;;4.22;;
38779;SDS011;29273;49.962;9.768;2023-12-07T04:21:44;5.82;;;4.22;;
38779;SDS011;29273;49.962;9.768;2023-12-07T04:24:09;5.68;;;4.13;;
38779;SDS011;29273;49.962;9.768;2023-12-07T04:26:35;5.05;;;4.05;;
38779;SDS011;29273;49.962;9.768;2023-12-07T04:29:00;6.85;;;4.50;;
38779;SDS011;29273;49.962;9.768;2023-12-07T04:31:26;4.95;;;4.15;;
38779;SDS011;29273;49.962;9.768;2023-12-07T04:33:51;5.60;;;4.43;;
38779;SDS011;29273;49.962;9.768;2023-12-07T04:36:17;5.32;;;4.50;;
38779;SDS011;29273;49.962;9.768;2023-12-07T04:38:42;5.53;;;3.97;;
38779;SDS011;29273;49.962;9.768;2023-12-07T04:41:08;5.70;;;4.22;;
38779;SDS011;29273;49.962;9.768;2023-12-07T04:43:33;5.30;;;4.00;;
38779;SDS011;29273;49.962;9.768;2023-12-07T04:45:59;5.18;;;3.95;;
38779;SDS011;29273;49.962;9.768;2023-12-07T04:48:24;5.15;;;4.28;;
38779;SDS011;29273;49.962;9.768;2023-12-07T04:50:51;6.20;;;4.25;;
38779;SDS011;29273;49.962;9.768;2023-12-07T04:53:17;6.35;;;4.65;;
38779;SDS011;29273;49.962;9.768;2023-12-07T04:55:42;5.78;;;4.35;;
38779;SDS011;29273;49.962;9.768;2023-12-07T04:58:12;5.20;;;4.18;;
38779;SDS011;29273;49.962;9.768;2023-12-07T05:00:38;5.22;;;4.03;;
38779;SDS011;29273;49.962;9.768;2023-12-07T05:03:04;5.80;;;4.50;;
38779;SDS011;29273;49.962;9.768;2023-12-07T05:05:29;4.82;;;3.80;;
38779;SDS011;29273;49.962;9.768;2023-12-07T05:07:54;6.05;;;4.28;;
38779;SDS011;29273;49.962;9.768;2023-12-07T05:10:20;5.47;;;3.95;;
38779;SDS011;29273;49.962;9.768;2023-12-07T05:12:46;5.38;;;4.15;;
38779;SDS011;29273;49.962;9.768;2023-12-07T05:15:11;4.93;;;4.43;;
38779;SDS011;29273;49.962;9.768;2023-12-07T05:17:37;4.68;;;3.78;;
38779;SDS011;29273;49.962;9.768;2023-12-07T05:20:03;4.60;;;3.75;;
38779;SDS011;29273;49.962;9.768;2023-12-07T05:22:30;5.50;;;4.00;;
38779;SDS011;29273;49.962;9.768;2023-12-07T05:24:55;5.07;;;3.63;;
38779;SDS011;29273;49.962;9.768;2023-12-07T05:27:21;4.20;;;3.70;;
38779;SDS011;29273;49.962;9.768;2023-12-07T05:29:46;4.85;;;3.88;;
38779;SDS011;29273;49.962;9.768;2023-12-07T05:32:12;6.20;;;4.07;;
38779;SDS011;29273;49.962;9.768;2023-12-07T05:34:37;4.90;;;4.05;;
38779;SDS011;29273;49.962;9.768;2023-12-07T05:37:03;5.20;;;4.10;;
38779;SDS011;29273;49.962;9.768;2023-12-07T05:39:29;4.90;;;4.00;;
38779;SDS011;29273;49.962;9.768;2023-12-07T05:41:55;4.55;;;3.88;;
38779;SDS011;29273;49.962;9.768;2023-12-07T05:44:21;5.72;;;4.05;;
38779;SDS011;29273;49.962;9.768;2023-12-07T05:46:47;6.28;;;4.75;;
38779;SDS011;29273;49.962;9.768;2023-12-07T05:49:13;8.32;;;4.40;;
38779;SDS011;29273;49.962;9.768;2023-12-07T05:51:39;6.80;;;4.70;;
38779;SDS011;29273;49.962;9.768;2023-12-07T05:54:05;7.65;;;5.22;;
38779;SDS011;29273;49.962;9.768;2023-12-07T05:56:31;10.00;;;5.78;;
38779;SDS011;29273;49.962;9.768;2023-12-07T05:58:56;6.07;;;5.07;;
38779;SDS011;29273;49.962;9.768;2023-12-07T06:01:22;7.38;;;5.57;;
38779;SDS011;29273;49.962;9.768;2023-12-07T06:03:49;6.50;;;5.20;;
38779;SDS011;29273;49.962;9.768;2023-12-07T06:06:15;7.82;;;5.78;;
38779;SDS011;29273;49.962;9.768;2023-12-07T06:08:40;7.63;;;5.78;;
38779;SDS011;29273;49.962;9.768;2023-12-07T06:11:06;8.05;;;6.05;;
38779;SDS011;29273;49.962;9.768;2023-12-07T06:13:32;7.15;;;5.47;;
38779;SDS011;29273;49.962;9.768;2023-12-07T06:15:59;7.32;;;5.30;;
38779;SDS011;29273;49.962;9.768;2023-12-07T06:18:24;7.22;;;5.60;;
38779;SDS011;29273;49.962;9.768;2023-12-07T06:20:50;7.28;;;5.47;;
38779;SDS011;29273;49.962;9.768;2023-12-07T06:23:15;5.90;;;4.97;;
38779;SDS011;29273;49.962;9.768;2023-12-07T06:25:41;7.00;;;5.18;;
38779;SDS011;29273;49.962;9.768;2023-12-07T06:28:07;6.53;;;5.15;;
38779;SDS011;29273;49.962;9.768;2023-12-07T06:30:33;7.32;;;5.65;;
38779;SDS011;29273;49.962;9.768;2023-12-07T06:32:59;6.68;;;4.88;;
38779;SDS011;29273;49.962;9.768;2023-12-07T06:35:25;7.53;;;4.30;;
38779;SDS011;29273;49.962;9.768;2023-12-07T06:37:50;7.32;;;5.55;;
38779;SDS011;29273;49.962;9.768;2023-12-07T06:40:15;8.95;;;5.97;;
38779;SDS011;29273;49.962;9.768;2023-12-07T06:42:41;7.90;;;5.55;;
38779;SDS011;29273;49.962;9.768;2023-12-07T06:45:08;8.73;;;6.20;;
38779;SDS011;29273;49.962;9.768;2023-12-07T06:47:36;10.52;;;5.53;;
38779;SDS011;29273;49.962;9.768;2023-12-07T06:50:03;8.50;;;5.90;;
38779;SDS011;29273;49.962;9.768;2023-12-07T06:52:30;7.28;;;5.38;;
38779;SDS011;29273;49.962;9.768;2023-12-07T06:54:55;6.95;;;4.93;;
38779;SDS011;29273;49.962;9.768;2023-12-07T06:57:21;7.38;;;5.53;;
38779;SDS011;29273;49.962;9.768;2023-12-07T06:59:46;7.03;;;5.05;;
38779;SDS011;29273;49.962;9.768;2023-12-07T07:02:12;6.30;;;4.63;;
38779;SDS011;29273;49.962;9.768;2023-12-07T07:04:38;8.02;;;4.93;;
38779;SDS011;29273;49.962;9.768;2023-12-07T07:07:03;6.07;;;4.57;;
38779;SDS011;29273;49.962;9.768;2023-12-07T07:09:29;5.45;;;4.10;;
38779;SDS011;29273;49.962;9.768;2023-12-07T07:11:54;5.57;;;3.97;;
38779;SDS011;29273;49.962;9.768;2023-12-07T07:14:20;5.47;;;4.40;;
38779;SDS011;29273;49.962;9.768;2023-12-07T07:16:45;5.90;;;4.28;;
38779;SDS011;29273;49.962;9.768;2023-12-07T07:19:11;5.38;;;4.35;;
38779;SDS011;29273;49.962;9.768;2023-12-07T07:21:36;5.53;;;4.32;;
38779;SDS011;29273;49.962;9.768;2023-12-07T07:24:02;6.63;;;3.83;;
38779;SDS011;29273;49.962;9.768;2023-12-07T07:26:27;5.38;;;3.92;;
38779;SDS011;29273;49.962;9.768;2023-12-07T07:28:53;6.32;;;4.25;;
38779;SDS011;29273;49.962;9.768;2023-12-07T07:31:18;5.97;;;4.13;;
38779;SDS011;29273;49.962;9.768;2023-12-07T07:33:44;8.07;;;4.43;;
38779;SDS011;29273;49.962;9.768;2023-12-07T07:36:12;6.38;;;4.65;;
38779;SDS011;29273;49.962;9.768;2023-12-07T07:38:38;6.40;;;4.13;;
38779;SDS011;29273;49.962;9.768;2023-12-07T07:41:03;5.20;;;3.90;;
38779;SDS011;29273;49.962;9.768;2023-12-07T07:43:29;5.75;;;4.25;;
38779;SDS011;29273;49.962;9.768;2023-12-07T07:45:55;6.95;;;4.15;;
38779;SDS011;29273;49.962;9.768;2023-12-07T07:48:21;6.18;;;4.25;;
38779;SDS011;29273;49.962;9.768;2023-12-07T07:50:47;8.00;;;4.43;;
38779;SDS011;29273;49.962;9.768;2023-12-07T07:53:12;6.97;;;4.68;;
38779;SDS011;29273;49.962;9.768;2023-12-07T07:55:38;5.60;;;4.40;;
38779;SDS011;29273;49.962;9.768;2023-12-07T07:58:03;6.18;;;4.63;;
38779;SDS011;29273;49.962;9.768;2023-12-07T08:00:29;6.13;;;4.45;;
38779;SDS011;29273;49.962;9.768;2023-12-07T08:02:55;9.80;;;4.78;;
38779;SDS011;29273;49.962;9.768;2023-12-07T08:05:21;7.32;;;5.13;;
38779;SDS011;29273;49.962;9.768;2023-12-07T08:07:46;9.32;;;4.88;;
38779;SDS011;29273;49.962;9.768;2023-12-07T08:10:12;6.88;;;5.00;;
38779;SDS011;29273;49.962;9.768;2023-12-07T08:12:39;7.03;;;5.32;;
38779;SDS011;29273;49.962;9.768;2023-12-07T08:15:05;8.35;;;5.15;;
38779;SDS011;29273;49.962;9.768;2023-12-07T08:17:30;8.40;;;4.55;;
38779;SDS011;29273;49.962;9.768;2023-12-07T08:19:56;7.25;;;5.00;;
38779;SDS011;29273;49.962;9.768;2023-12-07T08:22:24;10.23;;;5.50;;
38779;SDS011;29273;49.962;9.768;2023-12-07T08:24:50;7.22;;;4.78;;
38779;SDS011;29273;49.962;9.768;2023-12-07T08:27:15;6.53;;;4.95;;
38779;SDS011;29273;49.962;9.768;2023-12-07T08:29:40;6.22;;;4.32;;
38779;SDS011;29273;49.962;9.768;2023-12-07T08:32:06;6.65;;;4.85;;
38779;SDS011;29273;49.962;9.768;2023-12-07T08:34:31;5.43;;;4.35;;
38779;SDS011;29273;49.962;9.768;2023-12-07T08:36:57;6.97;;;4.93;;
38779;SDS011;29273;49.962;9.768;2023-12-07T08:39:23;7.07;;;4.75;;
38779;SDS011;29273;49.962;9.768;2023-12-07T08:41:49;7.90;;;5.55;;
38779;SDS011;29273;49.962;9.768;2023-12-07T08:44:15;10.10;;;6.13;;
38779;SDS011;29273;49.962;9.768;2023-12-07T08:46:40;11.07;;;6.95;;
38779;SDS011;29273;49.962;9.768;2023-12-07T08:49:08;10.35;;;6.97;;
38779;SDS011;29273;49.962;9.768;2023-12-07T08:51:34;14.20;;;7.90;;
38779;SDS011;29273;49.962;9.768;2023-12-07T08:54:00;12.65;;;7.35;;
38779;SDS011;29273;49.962;9.768;2023-12-07T08:56:26;14.43;;;8.00;;
38779;SDS011;29273;49.962;9.768;2023-12-07T08:58:52;12.55;;;7.38;;
38779;SDS011;29273;49.962;9.768;2023-12-07T09:01:17;12.68;;;7.75;;
38779;SDS011;29273;49.962;9.768;2023-12-07T09:03:43;13.65;;;7.65;;
38779;SDS011;29273;49.962;9.768;2023-12-07T09:06:08;14.48;;;7.60;;
38779;SDS011;29273;49.962;9.768;2023-12-07T09:08:34;15.20;;;7.47;;
38779;SDS011;29273;49.962;9.768;2023-12-07T09:11:00;15.70;;;7.88;;
38779;SDS011;29273;49.962;9.768;2023-12-07T09:13:25;10.02;;;6.47;;
38779;SDS011;29273;49.962;9.768;2023-12-07T09:15:51;10.27;;;6.07;;
38779;SDS011;29273;49.962;9.768;2023-12-07T09:18:16;8.93;;;6.20;;
38779;SDS011;29273;49.962;9.768;2023-12-07T09:20:41;8.00;;;5.82;;
38779;SDS011;29273;49.962;9.768;2023-12-07T09:23:14;9.43;;;5.90;;
38779;SDS011;29273;49.962;9.768;2023-12-07T09:25:40;9.73;;;6.65;;
38779;SDS011;29273;49.962;9.768;2023-12-07T09:28:06;9.45;;;6.70;;
38779;SDS011;29273;49.962;9.768;2023-12-07T09:30:32;10.38;;;6.85;;
38779;SDS011;29273;49.962;9.768;2023-12-07T09:32:58;9.48;;;6.38;;
38779;SDS011;29273;49.962;9.768;2023-12-07T09:35:25;9.63;;;6.60;;
38779;SDS011;29273;49.962;9.768;2023-12-07T09:37:50;8.77;;;5.55;;
38779;SDS011;29273;49.962;9.768;2023-12-07T09:40:20;9.80;;;6.82;;
38779;SDS011;29273;49.962;9.768;2023-12-07T09:42:46;9.30;;;6.57;;
38779;SDS011;29273;49.962;9.768;2023-12-07T09:45:13;9.63;;;6.82;;
38779;SDS011;29273;49.962;9.768;2023-12-07T09:47:41;8.90;;;6.30;;
38779;SDS011;29273;49.962;9.768;2023-12-07T09:50:08;9.20;;;6.55;;
38779;SDS011;29273;49.962;9.768;2023-12-07T09:52:34;9.27;;;6.28;;
38779;SDS011;29273;49.962;9.768;2023-12-07T09:55:03;9.57;;;5.82;;
38779;SDS011;29273;49.962;9.768;2023-12-07T09:57:31;8.80;;;6.05;;
38779;SDS011;29273;49.962;9.768;2023-12-07T09:59:58;7.97;;;5.50;;
38779;SDS011;29273;49.962;9.768;2023-12-07T10:02:23;8.15;;;5.43;;
38779;SDS011;29273;49.962;9.768;2023-12-07T10:05:03;7.43;;;5.40;;
38779;SDS011;29273;49.962;9.768;2023-12-07T10:07:33;7.07;;;5.13;;
38779;SDS011;29273;49.962;9.768;2023-12-07T10:10:03;8.07;;;6.05;;
38779;SDS011;29273;49.962;9.768;2023-12-07T10:12:30;7.75;;;5.55;;
38779;SDS011;29273;49.962;9.768;2023-12-07T10:14:59;8.65;;;5.93;;
38779;SDS011;29273;49.962;9.768;2023-12-07T10:20:24;9.52;;;5.60;;
38779;SDS011;29273;49.962;9.768;2023-12-07T10:23:03;7.53;;;5.50;;
38779;SDS011;29273;49.962;9.768;2023-12-07T10:25:29;8.35;;;5.47;;
38779;SDS011;29273;49.962;9.768;2023-12-07T10:28:00;7.53;;;5.57;;
38779;SDS011;29273;49.962;9.768;2023-12-07T10:30:26;8.88;;;5.95;;
38779;SDS011;29273;49.962;9.768;2023-12-07T10:32:52;9.02;;;6.10;;
38779;SDS011;29273;49.962;9.768;2023-12-07T10:35:18;8.25;;;5.65;;
38779;SDS011;29273;49.962;9.768;2023-12-07T10:37:44;8.75;;;5.47;;
38779;SDS011;29273;49.962;9.768;2023-12-07T10:40:12;7.75;;;5.32;;
38779;SDS011;29273;49.962;9.768;2023-12-07T10:42:37;9.80;;;6.30;;
38779;SDS011;29273;49.962;9.768;2023-12-07T10:45:06;8.77;;;5.93;;
38779;SDS011;29273;49.962;9.768;2023-12-07T10:47:33;7.82;;;5.10;;
38779;SDS011;29273;49.962;9.768;2023-12-07T10:50:01;8.65;;;6.05;;
38779;SDS011;29273;49.962;9.768;2023-12-07T10:52:28;8.80;;;6.28;;
38779;SDS011;29273;49.962;9.768;2023-12-07T10:55:05;8.00;;;5.90;;
38779;SDS011;29273;49.962;9.768;2023-12-07T10:57:34;8.43;;;5.72;;
38779;SDS011;29273;49.962;9.768;2023-12-07T11:00:00;10.68;;;6.50;;
38779;SDS011;29273;49.962;9.768;2023-12-07T11:02:27;9.55;;;6.05;;
38779;SDS011;29273;49.962;9.768;2023-12-07T11:04:57;9.63;;;6.53;;
38779;SDS011;29273;49.962;9.768;2023-12-07T11:07:24;9.88;;;6.18;;
38779;SDS011;29273;49.962;9.768;2023-12-07T11:10:00;9.25;;;6.15;;
38779;SDS011;29273;49.962;9.768;2023-12-07T11:12:36;8.90;;;6.10;;
38779;SDS011;29273;49.962;9.768;2023-12-07T11:15:11;9.35;;;6.47;;
38779;SDS011;29273;49.962;9.768;2023-12-07T11:17:53;8.60;;;5.68;;
38779;SDS011;29273;49.962;9.768;2023-12-07T11:20:20;7.65;;;5.57;;
38779;SDS011;29273;49.962;9.768;2023-12-07T11:22:56;8.18;;;6.13;;
38779;SDS011;29273;49.962;9.768;2023-12-07T11:25:22;11.15;;;7.93;;
38779;SDS011;29273;49.962;9.768;2023-12-07T11:27:47;9.45;;;7.10;;
38779;SDS011;29273;49.962;9.768;2023-12-07T11:30:14;7.60;;;6.10;;
38779;SDS011;29273;49.962;9.768;2023-12-07T11:32:40;8.75;;;6.55;;
38779;SDS011;29273;49.962;9.768;2023-12-07T11:35:07;7.78;;;5.55;;
38779;SDS011;29273;49.962;9.768;2023-12-07T11:40:42;8.10;;;6.35;;
38779;SDS011;29273;49.962;9.768;2023-12-07T11:43:18;7.80;;;5.80;;
38779;SDS011;29273;49.962;9.768;2023-12-07T11:45:55;9.05;;;6.70;;
38779;SDS011;29273;49.962;9.768;2023-12-07T11:48:20;8.65;;;6.22;;
38779;SDS011;29273;49.962;9.768;2023-12-07T11:50:53;9.52;;;6.78;;
38779;SDS011;29273;49.962;9.768;2023-12-07T11:53:26;8.65;;;6.28;;
38779;SDS011;29273;49.962;9.768;2023-12-07T11:55:55;7.82;;;6.53;;
38779;SDS011;29273;49.962;9.768;2023-12-07T11:58:22;9.32;;;6.57;;
38779;SDS011;29273;49.962;9.768;2023-12-07T12:00:50;10.50;;;7.38;;
38779;SDS011;29273;49.962;9.768;2023-12-07T12:03:17;9.15;;;6.60;;
38779;SDS011;29273;49.962;9.768;2023-12-07T12:05:42;11.23;;;7.85;;
38779;SDS011;29273;49.962;9.768;2023-12-07T12:08:09;11.02;;;7.43;;
38779;SDS011;29273;49.962;9.768;2023-12-07T12:10:35;11.00;;;7.70;;
38779;SDS011;29273;49.962;9.768;2023-12-07T12:13:04;12.23;;;8.75;;
38779;SDS011;29273;49.962;9.768;2023-12-07T12:15:30;10.77;;;7.88;;
38779;SDS011;29273;49.962;9.768;2023-12-07T12:17:56;9.70;;;7.05;;
38779;SDS011;29273;49.962;9.768;2023-12-07T12:20:23;10.45;;;7.60;;
38779;SDS011;29273;49.962;9.768;2023-12-07T12:22:49;10.10;;;7.90;;
38779;SDS011;29273;49.962;9.768;2023-12-07T12:25:28;10.52;;;7.60;;
38779;SDS011;29273;49.962;9.768;2023-12-07T12:27:58;10.25;;;7.40;;
38779;SDS011;29273;49.962;9.768;2023-12-07T12:30:28;9.27;;;6.78;;
38779;SDS011;29273;49.962;9.768;2023-12-07T12:32:55;10.23;;;7.25;;
38779;SDS011;29273;49.962;9.768;2023-12-07T12:35:22;10.27;;;6.80;;
38779;SDS011;29273;49.962;9.768;2023-12-07T12:37:48;9.75;;;7.05;;
38779;SDS011;29273;49.962;9.768;2023-12-07T12:40:17;9.50;;;6.88;;
38779;SDS011;29273;49.962;9.768;2023-12-07T12:42:47;9.07;;;6.82;;
38779;SDS011;29273;49.962;9.768;2023-12-07T12:45:14;10.10;;;7.20;;
38779;SDS011;29273;49.962;9.768;2023-12-07T12:47:41;9.32;;;7.03;;
38779;SDS011;29273;49.962;9.768;2023-12-07T12:50:11;9.45;;;6.38;;
38779;SDS011;29273;49.962;9.768;2023-12-07T12:52:39;9.52;;;6.97;;
38779;SDS011;29273;49.962;9.768;2023-12-07T12:55:08;9.57;;;6.47;;
38779;SDS011;29273;49.962;9.768;2023-12-07T12:57:35;9.27;;;6.88;;
38779;SDS011;29273;49.962;9.768;2023-12-07T13:00:01;9.40;;;6.90;;
38779;SDS011;29273;49.962;9.768;2023-12-07T13:02:27;8.35;;;6.20;;
38779;SDS011;29273;49.962;9.768;2023-12-07T13:04:54;9.63;;;6.72;;
38779;SDS011;29273;49.962;9.768;2023-12-07T13:07:21;8.60;;;6.45;;
38779;SDS011;29273;49.962;9.768;2023-12-07T13:09:47;9.18;;;6.95;;
38779;SDS011;29273;49.962;9.768;2023-12-07T13:12:12;8.90;;;6.90;;
38779;SDS011;29273;49.962;9.768;2023-12-07T13:14:37;8.48;;;6.18;;
38779;SDS011;29273;49.962;9.768;2023-12-07T13:17:05;9.18;;;6.18;;
38779;SDS011;29273;49.962;9.768;2023-12-07T13:19:33;7.72;;;5.70;;
38779;SDS011;29273;49.962;9.768;2023-12-07T13:21:59;8.23;;;6.50;;
38779;SDS011;29273;49.962;9.768;2023-12-07T13:24:25;8.65;;;6.55;;
38779;SDS011;29273;49.962;9.768;2023-12-07T13:26:50;9.32;;;6.68;;
38779;SDS011;29273;49.962;9.768;2023-12-07T13:29:16;7.38;;;6.13;;
38779;SDS011;29273;49.962;9.768;2023-12-07T13:31:41;7.57;;;5.65;;
38779;SDS011;29273;49.962;9.768;2023-12-07T13:34:07;7.18;;;5.50;;
38779;SDS011;29273;49.962;9.768;2023-12-07T13:36:33;7.50;;;5.38;;
38779;SDS011;29273;49.962;9.768;2023-12-07T13:39:00;8.02;;;5.63;;
38779;SDS011;29273;49.962;9.768;2023-12-07T13:41:29;8.00;;;5.38;;
38779;SDS011;29273;49.962;9.768;2023-12-07T13:43:54;7.95;;;5.30;;
38779;SDS011;29273;49.962;9.768;2023-12-07T13:46:20;8.82;;;5.93;;
38779;SDS011;29273;49.962;9.768;2023-12-07T13:48:45;8.07;;;5.78;;
38779;SDS011;29273;49.962;9.768;2023-12-07T13:51:12;6.97;;;5.47;;
38779;SDS011;29273;49.962;9.768;2023-12-07T13:53:38;8.02;;;6.03;;
38779;SDS011;29273;49.962;9.768;2023-12-07T13:56:03;8.80;;;6.28;;
38779;SDS011;29273;49.962;9.768;2023-12-07T13:58:30;8.32;;;6.20;;
38779;SDS011;29273;49.962;9.768;2023-12-07T14:00:56;7.70;;;5.85;;
38779;SDS011;29273;49.962;9.768;2023-12-07T14:03:21;8.98;;;6.43;;
38779;SDS011;29273;49.962;9.768;2023-12-07T14:05:46;9.35;;;6.75;;
38779;SDS011;29273;49.962;9.768;2023-12-07T14:08:13;8.65;;;6.53;;
38779;SDS011;29273;49.962;9.768;2023-12-07T14:10:38;9.65;;;6.65;;
38779;SDS011;29273;49.962;9.768;2023-12-07T14:13:04;8.35;;;6.22;;
38779;SDS011;29273;49.962;9.768;2023-12-07T14:15:30;9.45;;;6.50;;
38779;SDS011;29273;49.962;9.768;2023-12-07T14:17:59;8.25;;;6.05;;
38779;SDS011;29273;49.962;9.768;2023-12-07T14:20:25;8.43;;;6.32;;
38779;SDS011;29273;49.962;9.768;2023-12-07T14:22:53;7.50;;;5.45;;
38779;SDS011;29273;49.962;9.768;2023-12-07T14:25:21;7.18;;;5.63;;
38779;SDS011;29273;49.962;9.768;2023-12-07T14:27:47;8.43;;;6.15;;
38779;SDS011;29273;49.962;9.768;2023-12-07T14:30:13;7.90;;;6.03;;
38779;SDS011;29273;49.962;9.768;2023-12-07T14:32:42;8.45;;;6.70;;
38779;SDS011;29273;49.962;9.768;2023-12-07T14:35:13;8.38;;;6.47;;
38779;SDS011;29273;49.962;9.768;2023-12-07T14:37:38;8.98;;;6.45;;
38779;SDS011;29273;49.962;9.768;2023-12-07T14:40:06;8.70;;;6.57;;
38779;SDS011;29273;49.962;9.768;2023-12-07T14:42:32;7.97;;;5.97;;
38779;SDS011;29273;49.962;9.768;2023-12-07T14:44:58;9.48;;;7.15;;
38779;SDS011;29273;49.962;9.768;2023-12-07T14:47:23;8.95;;;6.70;;
38779;SDS011;29273;49.962;9.768;2023-12-07T14:49:49;9.50;;;6.75;;
38779;SDS011;29273;49.962;9.768;2023-12-07T14:52:15;9.15;;;6.90;;